createdAt,value
2019-03-23T00:00:50.315Z,164.93
2019-03-23T00:04:55.489Z,161.10
2019-03-23T00:09:00.962Z,163.45
2019-03-23T00:13:07.851Z,161.62
2019-03-23T00:17:13.130Z,165.12
2019-03-23T00:21:18.513Z,164.93
2019-03-23T00:25:23.788Z,172.32
2019-03-23T00:29:29.024Z,161.05
2019-03-23T00:33:37.078Z,176.97
2019-03-23T00:37:42.285Z,169.25
2019-03-23T00:41:47.399Z,171.82
2019-03-23T00:45:52.538Z,178.00
2019-03-23T00:49:57.735Z,168.85
2019-03-23T00:54:02.916Z,163.95
2019-03-23T00:58:08.084Z,204.90
2019-03-23T01:02:13.280Z,169.47
2019-03-23T01:06:18.459Z,170.38
2019-03-23T01:10:23.632Z,173.43
2019-03-23T01:14:29.753Z,186.37
2019-03-23T01:18:34.901Z,176.32
2019-03-23T01:22:40.087Z,172.93
2019-03-23T01:26:45.212Z,181.22
2019-03-23T01:30:50.442Z,173.17
2019-03-23T01:34:55.668Z,175.70
2019-03-23T01:39:00.738Z,189.00
2019-03-23T01:43:07.546Z,191.65
2019-03-23T01:47:12.642Z,181.72
2019-03-23T01:51:17.758Z,180.80
2019-03-23T01:55:22.886Z,187.25
2019-03-23T01:59:27.974Z,163.37
2019-03-23T02:03:33.098Z,170.68
2019-03-23T02:07:38.235Z,180.03
2019-03-23T02:11:43.410Z,185.63
2019-03-23T02:15:48.636Z,182.47
2019-03-23T02:19:54.081Z,182.27
2019-03-23T02:23:59.328Z,161.07
2019-03-23T02:28:04.610Z,158.40
2019-03-23T02:32:12.119Z,171.25
2019-03-23T02:36:17.266Z,173.00
2019-03-23T02:40:22.478Z,169.35
2019-03-23T02:44:27.631Z,179.32
2019-03-23T02:48:32.808Z,173.13
2019-03-23T02:52:38.143Z,180.03
2019-03-23T02:56:43.245Z,178.15
2019-03-23T03:00:48.376Z,192.25
2019-03-23T03:04:53.469Z,158.45
2019-03-23T03:08:58.632Z,206.45
2019-03-23T03:13:04.046Z,174.60
2019-03-23T03:17:09.148Z,198.85
2019-03-23T03:21:14.279Z,217.72
2019-03-23T03:25:19.403Z,236.43
2019-03-23T03:29:24.572Z,250.68
2019-03-23T03:33:29.719Z,261.70
2019-03-23T03:37:34.839Z,317.48
2019-03-23T03:41:40.040Z,256.30
2019-03-23T03:45:45.110Z,265.52
2019-03-23T03:49:50.235Z,203.15
2019-03-23T03:53:55.327Z,272.15
2019-03-23T03:58:00.496Z,272.12
2019-03-23T04:02:05.669Z,244.72
2019-03-23T04:06:10.845Z,220.57
2019-03-23T04:10:17.189Z,238.68
2019-03-23T04:14:22.314Z,217.93
2019-03-23T04:18:27.469Z,240.95
2019-03-23T04:22:32.758Z,222.85
2019-03-23T04:26:39.357Z,273.65
2019-03-23T04:30:44.692Z,239.15
2019-03-23T04:34:49.869Z,248.62
2019-03-23T04:38:55.012Z,239.42
2019-03-23T04:43:00.106Z,228.55
2019-03-23T04:47:06.219Z,255.77
2019-03-23T04:51:11.455Z,233.72
2019-03-23T04:55:16.627Z,246.93
2019-03-23T04:59:21.806Z,249.18
2019-03-23T05:03:27.019Z,208.57
2019-03-23T05:07:32.115Z,215.90
2019-03-23T05:11:37.237Z,193.47
2019-03-23T05:15:42.352Z,207.55
2019-03-23T05:19:47.522Z,204.68
2019-03-23T05:23:52.595Z,207.72
2019-03-23T05:27:57.747Z,204.97
2019-03-23T05:32:02.858Z,215.47
2019-03-23T05:36:07.975Z,211.07
2019-03-23T05:40:13.061Z,215.18
2019-03-23T05:44:20.024Z,217.22
2019-03-23T05:48:26.129Z,173.17
2019-03-23T05:52:36.295Z,168.00
2019-03-23T05:56:42.070Z,180.15
2019-03-23T06:00:47.720Z,157.93
2019-03-23T06:04:52.858Z,154.12
2019-03-23T06:08:58.002Z,146.20
2019-03-23T06:13:04.868Z,153.50
2019-03-23T06:17:13.055Z,139.10
2019-03-23T06:21:19.174Z,126.78
2019-03-23T06:25:26.378Z,128.68
2019-03-23T06:29:32.426Z,120.05
2019-03-23T06:33:43.577Z,116.60
2019-03-23T06:37:49.097Z,118.50
2019-03-23T06:41:54.784Z,112.30
2019-03-23T06:45:59.965Z,117.05
2019-03-23T06:50:06.311Z,107.32
2019-03-23T06:54:11.876Z,101.67
2019-03-23T06:58:19.435Z,94.07
2019-03-23T07:02:25.070Z,101.02
2019-03-23T07:06:30.196Z,88.87
2019-03-23T07:10:35.302Z,88.20
2019-03-23T07:14:41.415Z,82.00
2019-03-23T07:18:47.076Z,79.20
2019-03-23T07:22:57.968Z,76.25
2019-03-23T07:27:03.895Z,77.25
2019-03-23T07:31:09.807Z,79.87
2019-03-23T07:35:21.120Z,79.25
2019-03-23T07:39:28.207Z,75.47
2019-03-23T07:43:33.761Z,72.25
2019-03-23T07:47:39.762Z,66.02
2019-03-23T07:51:45.210Z,67.35
2019-03-23T07:55:50.515Z,65.25
2019-03-23T07:59:55.674Z,62.00
2019-03-23T08:04:00.807Z,57.08
2019-03-23T08:08:06.895Z,51.35
2019-03-23T08:12:12.127Z,51.88
2019-03-23T08:16:17.612Z,41.60
2019-03-23T08:20:22.690Z,42.00
2019-03-23T08:24:28.897Z,40.88
2019-03-23T08:28:34.211Z,38.40
2019-03-23T08:32:39.483Z,41.68
2019-03-23T08:36:44.584Z,42.70
2019-03-23T08:40:49.825Z,42.67
2019-03-23T08:44:55.073Z,43.63
2019-03-23T08:49:01.378Z,49.65
2019-03-23T08:53:07.727Z,47.23
2019-03-23T08:57:12.864Z,46.23
